createdAt,value
2017-10-03T00:00:55.890Z,976.65
2017-10-03T00:01:55.924Z,976.69
2017-10-03T00:02:55.965Z,976.71
2017-10-03T00:03:56.006Z,976.70
2017-10-03T00:05:17.058Z,976.67
2017-10-03T00:05:56.078Z,976.60
2017-10-03T00:06:56.115Z,976.61
2017-10-03T00:07:56.149Z,976.62
2017-10-03T00:08:56.187Z,976.57
2017-10-03T00:09:56.234Z,976.54
2017-10-03T00:11:17.290Z,976.56
2017-10-03T00:11:56.310Z,976.54
2017-10-03T00:12:56.336Z,976.54
2017-10-03T00:13:56.375Z,976.53
2017-10-03T00:14:56.417Z,976.52
2017-10-03T00:15:56.453Z,976.52
2017-10-03T00:17:17.508Z,976.51
2017-10-03T00:17:56.529Z,976.55
2017-10-03T00:18:56.566Z,976.50
2017-10-03T00:19:56.605Z,976.51
2017-10-03T00:20:56.647Z,976.50
2017-10-03T00:21:56.691Z,976.54
2017-10-03T00:23:17.735Z,976.52
2017-10-03T00:23:56.757Z,976.45
2017-10-03T00:24:56.789Z,976.46
2017-10-03T00:25:56.830Z,976.45
2017-10-03T00:26:56.874Z,976.46
2017-10-03T00:27:56.902Z,976.50
2017-10-03T00:29:17.970Z,976.52
2017-10-03T00:29:56.983Z,976.51
2017-10-03T00:30:57.013Z,976.54
2017-10-03T00:31:57.056Z,976.51
2017-10-03T00:32:57.095Z,976.53
2017-10-03T00:33:57.134Z,976.55
2017-10-03T00:35:18.190Z,976.59
2017-10-03T00:35:57.207Z,976.50
2017-10-03T00:36:57.242Z,976.55
2017-10-03T00:37:57.286Z,976.51
2017-10-03T00:38:57.327Z,976.52
2017-10-03T00:39:57.360Z,976.47
2017-10-03T00:41:18.418Z,976.53
2017-10-03T00:41:57.430Z,976.41
2017-10-03T00:42:57.469Z,976.49
2017-10-03T00:43:57.507Z,976.43
2017-10-03T00:44:57.540Z,976.49
2017-10-03T00:45:57.583Z,976.46
2017-10-03T00:47:18.637Z,976.51
2017-10-03T00:47:57.660Z,976.50
2017-10-03T00:48:57.695Z,976.48
2017-10-03T00:49:57.738Z,976.50
2017-10-03T00:50:57.768Z,976.41
2017-10-03T00:51:57.814Z,976.49
2017-10-03T00:53:18.867Z,976.44
2017-10-03T00:53:57.883Z,976.43
2017-10-03T00:54:57.923Z,976.48
2017-10-03T00:55:57.957Z,976.47
2017-10-03T00:56:57.996Z,976.47
2017-10-03T00:57:58.030Z,976.44
2017-10-03T00:59:19.090Z,976.45
2017-10-03T00:59:58.110Z,976.43
2017-10-03T01:00:58.143Z,976.46
2017-10-03T01:01:58.179Z,976.42
2017-10-03T01:02:58.218Z,976.49
2017-10-03T01:03:58.265Z,976.48
2017-10-03T01:05:19.312Z,976.42
2017-10-03T01:05:58.337Z,976.48
2017-10-03T01:06:58.375Z,976.54
2017-10-03T01:07:58.403Z,976.51
2017-10-03T01:08:58.441Z,976.46
2017-10-03T01:09:58.481Z,976.47
2017-10-03T01:11:19.543Z,976.48
2017-10-03T01:11:58.558Z,976.46
2017-10-03T01:12:58.592Z,976.47
2017-10-03T01:13:58.666Z,976.45
2017-10-03T01:14:58.668Z,976.58
2017-10-03T01:15:58.711Z,976.57
2017-10-03T01:17:19.761Z,976.63
2017-10-03T01:17:58.779Z,976.68
2017-10-03T01:18:58.818Z,976.64
2017-10-03T01:19:58.857Z,976.66
2017-10-03T01:20:58.901Z,976.66
2017-10-03T01:21:58.929Z,976.63
2017-10-03T01:23:19.992Z,976.62
2017-10-03T01:23:59.013Z,976.61
2017-10-03T01:24:59.040Z,976.61
2017-10-03T01:25:59.077Z,976.70
2017-10-03T01:26:59.113Z,976.69
2017-10-03T01:27:59.152Z,976.76
2017-10-03T01:29:20.214Z,976.73
2017-10-03T01:29:59.229Z,976.79
2017-10-03T01:30:59.262Z,976.80
2017-10-03T01:31:59.307Z,976.77
2017-10-03T01:32:59.340Z,976.81
2017-10-03T01:33:59.377Z,976.74
2017-10-03T01:35:20.434Z,976.74
2017-10-03T01:35:59.449Z,976.69
2017-10-03T01:36:59.485Z,976.75
2017-10-03T01:37:59.529Z,976.74
2017-10-03T01:38:59.563Z,976.76
2017-10-03T01:39:59.602Z,976.76
2017-10-03T01:41:20.656Z,976.77
2017-10-03T01:41:59.667Z,976.77
2017-10-03T01:42:59.709Z,976.72
2017-10-03T01:43:59.742Z,976.70
2017-10-03T01:44:59.785Z,976.63
2017-10-03T01:45:59.821Z,976.60
2017-10-03T01:47:20.876Z,976.58
2017-10-03T01:47:59.891Z,976.63
2017-10-03T01:48:59.927Z,976.56
2017-10-03T01:49:59.972Z,976.57
2017-10-03T01:51:00.003Z,976.57
2017-10-03T01:52:00.039Z,976.61
2017-10-03T01:53:21.097Z,976.58
2017-10-03T01:54:00.111Z,976.58
2017-10-03T01:55:00.147Z,976.57
2017-10-03T01:56:00.187Z,976.59
2017-10-03T01:57:00.223Z,976.56
2017-10-03T01:58:00.263Z,976.58
2017-10-03T01:59:21.321Z,976.57
2017-10-03T02:00:00.328Z,976.63
2017-10-03T02:01:00.365Z,976.61
2017-10-03T02:02:00.410Z,976.59
2017-10-03T02:03:00.442Z,976.56
2017-10-03T02:04:00.477Z,976.58
2017-10-03T02:05:21.535Z,976.54
2017-10-03T02:06:00.548Z,976.53
2017-10-03T02:07:00.590Z,976.55
2017-10-03T02:08:00.620Z,976.57
2017-10-03T02:09:00.659Z,976.52
2017-10-03T02:10:00.695Z,976.55
2017-10-03T02:11:21.748Z,976.54
2017-10-03T02:12:00.765Z,976.54
2017-10-03T02:13:00.802Z,976.50
2017-10-03T02:14:00.850Z,976.54
2017-10-03T02:15:00.879Z,976.48
2017-10-03T02:16:00.911Z,976.53
2017-10-03T02:17:21.972Z,976.56
2017-10-03T02:18:00.984Z,976.54
2017-10-03T02:19:01.020Z,976.50
2017-10-03T02:20:01.061Z,976.50
2017-10-03T02:21:01.099Z,976.57
2017-10-03T02:22:01.176Z,976.53
2017-10-03T02:23:22.192Z,976.57
2017-10-03T02:24:01.201Z,976.54
2017-10-03T02:25:01.241Z,976.53
2017-10-03T02:26:01.272Z,976.54
2017-10-03T02:27:01.312Z,976.59
2017-10-03T02:28:01.347Z,976.63
2017-10-03T02:29:22.408Z,976.62
2017-10-03T02:30:01.422Z,976.59
2017-10-03T02:31:01.461Z,976.59
2017-10-03T02:32:01.491Z,976.53
2017-10-03T02:33:01.526Z,976.51
2017-10-03T02:34:01.568Z,976.50
2017-10-03T02:35:22.623Z,976.55
2017-10-03T02:36:01.642Z,976.49
2017-10-03T02:37:01.674Z,976.51
2017-10-03T02:38:01.746Z,976.48
2017-10-03T02:39:01.755Z,976.41
2017-10-03T02:40:01.787Z,976.43
2017-10-03T02:41:22.843Z,976.39
2017-10-03T02:42:01.857Z,976.44
2017-10-03T02:43:01.896Z,976.41
2017-10-03T02:44:01.935Z,976.38
2017-10-03T02:45:01.973Z,976.42
2017-10-03T02:46:02.006Z,976.41
2017-10-03T02:47:23.059Z,976.42
2017-10-03T02:48:02.074Z,976.43
2017-10-03T02:49:02.113Z,976.43
2017-10-03T02:50:02.146Z,976.47
2017-10-03T02:51:02.182Z,976.48
2017-10-03T02:52:02.222Z,976.43
2017-10-03T02:53:23.279Z,976.42
2017-10-03T02:54:02.306Z,976.43
2017-10-03T02:55:02.334Z,976.44
2017-10-03T02:56:02.368Z,976.47
2017-10-03T02:57:02.399Z,976.49
2017-10-03T02:58:02.446Z,976.43
2017-10-03T02:59:23.505Z,976.44
2017-10-03T03:00:02.511Z,976.45
2017-10-03T03:01:02.551Z,976.43
2017-10-03T03:02:02.593Z,976.45
2017-10-03T03:03:02.624Z,976.41
2017-10-03T03:04:02.659Z,976.42
2017-10-03T03:05:23.715Z,976.44
2017-10-03T03:06:02.730Z,976.42
2017-10-03T03:07:02.767Z,976.42
2017-10-03T03:08:02.804Z,976.39
2017-10-03T03:09:02.841Z,976.43
2017-10-03T03:10:02.878Z,976.41
2017-10-03T03:11:23.937Z,976.39
2017-10-03T03:12:02.947Z,976.41
2017-10-03T03:13:02.986Z,976.41
2017-10-03T03:14:03.026Z,976.43
2017-10-03T03:15:03.058Z,976.40
2017-10-03T03:16:03.099Z,976.39
2017-10-03T03:17:24.151Z,976.40
2017-10-03T03:18:03.181Z,976.39
2017-10-03T03:19:03.218Z,976.38
2017-10-03T03:20:03.243Z,976.36
2017-10-03T03:21:03.277Z,976.37
2017-10-03T03:22:03.312Z,976.30
2017-10-03T03:23:24.372Z,976.28
2017-10-03T03:24:03.387Z,976.26
2017-10-03T03:25:03.418Z,976.22
2017-10-03T03:26:03.463Z,976.27
2017-10-03T03:27:03.490Z,976.21
2017-10-03T03:28:03.531Z,976.20
2017-10-03T03:29:24.589Z,976.22
2017-10-03T03:30:03.607Z,976.20
2017-10-03T03:31:03.641Z,976.18
2017-10-03T03:32:03.677Z,976.20
2017-10-03T03:33:03.713Z,976.17
2017-10-03T03:34:03.758Z,976.18
2017-10-03T03:35:24.806Z,976.21
2017-10-03T03:36:03.823Z,976.12
2017-10-03T03:37:03.855Z,976.15
2017-10-03T03:38:03.897Z,976.18
2017-10-03T03:39:03.931Z,976.15
2017-10-03T03:40:03.963Z,976.15
2017-10-03T03:41:25.023Z,976.18
2017-10-03T03:42:04.038Z,976.21
2017-10-03T03:43:04.081Z,976.18
2017-10-03T03:44:04.110Z,976.15
2017-10-03T03:45:04.150Z,976.15
2017-10-03T03:46:04.183Z,976.15
2017-10-03T03:47:25.240Z,976.15
2017-10-03T03:48:04.261Z,976.15
2017-10-03T03:49:04.290Z,976.18
2017-10-03T03:50:04.325Z,976.20
2017-10-03T03:51:04.363Z,976.14
2017-10-03T03:52:04.407Z,976.15
2017-10-03T03:53:25.459Z,976.14
2017-10-03T03:54:04.476Z,976.15
2017-10-03T03:55:04.512Z,976.16
2017-10-03T03:56:04.548Z,976.15
2017-10-03T03:57:04.584Z,976.13
2017-10-03T03:58:04.619Z,976.14
2017-10-03T03:59:25.678Z,976.18
2017-10-03T04:00:04.693Z,976.17
2017-10-03T04:01:04.730Z,976.17
2017-10-03T04:02:04.772Z,976.18
2017-10-03T04:03:04.804Z,976.14
2017-10-03T04:04:04.837Z,976.16
2017-10-03T04:05:25.899Z,976.13
2017-10-03T04:06:04.907Z,976.09
2017-10-03T04:07:04.949Z,976.12
2017-10-03T04:08:04.985Z,976.09
2017-10-03T04:09:05.014Z,976.14
2017-10-03T04:10:05.053Z,976.13
2017-10-03T04:11:26.114Z,976.10
2017-10-03T04:12:05.127Z,976.11
2017-10-03T04:13:05.163Z,976.13
2017-10-03T04:14:05.198Z,976.11
2017-10-03T04:15:05.241Z,976.07
2017-10-03T04:16:05.269Z,976.12
2017-10-03T04:17:26.346Z,976.10
2017-10-03T04:18:05.353Z,976.11
2017-10-03T04:19:05.387Z,976.09
2017-10-03T04:20:05.415Z,976.12
2017-10-03T04:21:05.457Z,976.08
2017-10-03T04:22:05.487Z,976.12
2017-10-03T04:23:26.557Z,976.10
2017-10-03T04:24:05.558Z,976.07
2017-10-03T04:25:05.599Z,976.11
2017-10-03T04:26:05.635Z,976.07
2017-10-03T04:27:05.667Z,976.08
2017-10-03T04:28:05.707Z,976.03
2017-10-03T04:29:26.763Z,976.04
2017-10-03T04:30:05.778Z,976.01
2017-10-03T04:31:05.816Z,976.01
2017-10-03T04:32:05.852Z,975.97
2017-10-03T04:33:05.881Z,976.01
2017-10-03T04:34:05.926Z,975.92
2017-10-03T04:35:26.980Z,975.89
2017-10-03T04:36:06.005Z,975.88
2017-10-03T04:37:06.027Z,975.90
2017-10-03T04:38:06.065Z,975.89
2017-10-03T04:39:06.104Z,975.88
2017-10-03T04:40:06.151Z,975.90
2017-10-03T04:41:27.195Z,975.85
2017-10-03T04:42:06.212Z,975.84
2017-10-03T04:43:06.247Z,975.87
2017-10-03T04:44:06.280Z,975.89
2017-10-03T04:45:06.318Z,975.87
2017-10-03T04:46:06.351Z,975.90
2017-10-03T04:47:27.415Z,975.91
2017-10-03T04:48:06.423Z,975.94
2017-10-03T04:49:06.461Z,975.96
2017-10-03T04:50:06.499Z,975.93
2017-10-03T04:51:06.534Z,975.92
2017-10-03T04:52:06.569Z,975.92
2017-10-03T04:53:27.630Z,975.95
2017-10-03T04:54:06.713Z,975.90
2017-10-03T04:55:06.682Z,975.93
2017-10-03T04:56:06.721Z,976.03
2017-10-03T04:57:06.754Z,976.00
2017-10-03T04:58:06.786Z,976.05
2017-10-03T04:59:27.846Z,976.02
2017-10-03T05:00:06.863Z,976.05
2017-10-03T05:01:06.898Z,976.03
2017-10-03T05:02:06.932Z,976.08
2017-10-03T05:03:06.965Z,976.09
2017-10-03T05:04:07.006Z,976.13
2017-10-03T05:05:28.065Z,976.11
2017-10-03T05:06:07.074Z,976.13
2017-10-03T05:07:07.115Z,976.10
2017-10-03T05:08:07.159Z,976.15
2017-10-03T05:09:07.182Z,976.13
2017-10-03T05:10:07.217Z,976.16
2017-10-03T05:11:28.277Z,976.15
2017-10-03T05:12:07.287Z,976.17
2017-10-03T05:13:07.336Z,976.14
2017-10-03T05:14:07.365Z,976.22
2017-10-03T05:15:07.401Z,976.14
2017-10-03T05:16:07.459Z,976.19
2017-10-03T05:17:28.511Z,976.24
2017-10-03T05:18:07.503Z,976.26
2017-10-03T05:19:07.537Z,976.25
2017-10-03T05:20:07.573Z,976.25
2017-10-03T05:21:07.612Z,976.22
2017-10-03T05:22:07.651Z,976.21
2017-10-03T05:23:28.704Z,976.21
2017-10-03T05:24:07.716Z,976.21
2017-10-03T05:25:07.753Z,976.25
2017-10-03T05:26:07.790Z,976.23
2017-10-03T05:27:07.827Z,976.24
2017-10-03T05:28:07.868Z,976.20
2017-10-03T05:29:28.914Z,976.22
2017-10-03T05:30:07.940Z,976.19
2017-10-03T05:31:07.969Z,976.27
2017-10-03T05:32:08.006Z,976.27
2017-10-03T05:33:08.039Z,976.31
2017-10-03T05:34:08.082Z,976.33
2017-10-03T05:35:29.131Z,976.33
2017-10-03T05:36:08.152Z,976.27
2017-10-03T05:37:08.189Z,976.27
2017-10-03T05:38:08.218Z,976.20
2017-10-03T05:39:08.252Z,976.17
2017-10-03T05:40:08.296Z,976.16
2017-10-03T05:41:29.352Z,976.17
2017-10-03T05:42:08.371Z,976.12
2017-10-03T05:43:08.399Z,976.15
2017-10-03T05:44:08.435Z,976.15
2017-10-03T05:45:08.479Z,976.18
2017-10-03T05:46:08.502Z,976.22
2017-10-03T05:47:29.568Z,976.23
2017-10-03T05:48:08.577Z,976.25
2017-10-03T05:49:08.615Z,976.28
2017-10-03T05:50:08.654Z,976.23
2017-10-03T05:51:08.688Z,976.27
2017-10-03T05:52:08.721Z,976.24
2017-10-03T05:53:29.776Z,976.20
2017-10-03T05:54:08.796Z,976.21
2017-10-03T05:55:08.835Z,976.19
2017-10-03T05:56:08.869Z,976.20
2017-10-03T05:57:08.906Z,976.21
2017-10-03T05:58:08.945Z,976.19
2017-10-03T05:59:29.996Z,976.24
2017-10-03T06:00:09.013Z,976.27
2017-10-03T06:01:09.044Z,976.34
2017-10-03T06:02:09.095Z,976.41
2017-10-03T06:03:09.119Z,976.44
2017-10-03T06:04:09.156Z,976.47
2017-10-03T06:05:30.211Z,976.48
2017-10-03T06:06:09.237Z,976.52
2017-10-03T06:07:09.261Z,976.54
2017-10-03T06:08:09.294Z,976.56
2017-10-03T06:09:09.329Z,976.56
2017-10-03T06:10:09.369Z,976.58
2017-10-03T06:11:30.427Z,976.57
2017-10-03T06:12:09.443Z,976.64
2017-10-03T06:13:09.485Z,976.59
2017-10-03T06:14:09.515Z,976.67
2017-10-03T06:15:09.553Z,976.68
2017-10-03T06:16:09.587Z,976.77
2017-10-03T06:17:30.642Z,976.78
2017-10-03T06:18:09.653Z,976.82
2017-10-03T06:19:09.697Z,976.83
2017-10-03T06:20:09.726Z,976.88
2017-10-03T06:21:09.762Z,976.88
2017-10-03T06:22:09.795Z,976.88
2017-10-03T06:23:30.851Z,976.89
2017-10-03T06:24:09.867Z,976.87
2017-10-03T06:25:09.911Z,976.86
2017-10-03T06:26:09.953Z,976.87
2017-10-03T06:27:09.976Z,976.85
2017-10-03T06:28:10.010Z,976.85
2017-10-03T06:29:31.068Z,976.87
2017-10-03T06:30:10.087Z,976.89
2017-10-03T06:31:10.124Z,976.86
2017-10-03T06:32:10.162Z,976.86
2017-10-03T06:33:10.194Z,976.88
2017-10-03T06:34:10.230Z,976.81
2017-10-03T06:35:31.282Z,976.85
2017-10-03T06:36:10.301Z,976.86
2017-10-03T06:37:10.338Z,976.86
2017-10-03T06:38:10.374Z,976.91
2017-10-03T06:39:10.407Z,976.87
2017-10-03T06:40:10.443Z,976.88
2017-10-03T06:41:31.494Z,976.88
2017-10-03T06:42:10.511Z,976.88
2017-10-03T06:43:10.553Z,976.89
2017-10-03T06:44:10.586Z,976.86
2017-10-03T06:45:10.626Z,976.83
2017-10-03T06:46:10.665Z,976.80
2017-10-03T06:47:31.718Z,976.73
2017-10-03T06:48:10.734Z,976.73
2017-10-03T06:49:10.763Z,976.65
2017-10-03T06:50:10.802Z,976.63
2017-10-03T06:51:10.839Z,976.58
2017-10-03T06:52:10.872Z,976.54
2017-10-03T06:53:31.933Z,976.54
2017-10-03T06:54:10.943Z,976.53
2017-10-03T06:55:10.978Z,976.55
2017-10-03T06:56:11.010Z,976.53
2017-10-03T06:57:11.053Z,976.55
2017-10-03T06:58:11.086Z,976.54
2017-10-03T06:59:32.146Z,976.50
2017-10-03T07:00:11.161Z,976.49
2017-10-03T07:01:11.193Z,976.44
2017-10-03T07:02:11.227Z,976.37
2017-10-03T07:03:11.267Z,976.28
2017-10-03T07:04:11.301Z,976.22
2017-10-03T07:05:32.362Z,976.10
2017-10-03T07:06:11.381Z,975.99
2017-10-03T07:07:11.412Z,975.93
2017-10-03T07:08:11.444Z,975.83
2017-10-03T07:09:11.483Z,975.74
2017-10-03T07:10:11.521Z,975.68
2017-10-03T07:11:32.577Z,975.69
2017-10-03T07:12:11.592Z,975.76
2017-10-03T07:13:11.627Z,975.84
2017-10-03T07:14:11.667Z,976.03
2017-10-03T07:15:11.697Z,976.34
2017-10-03T07:16:11.732Z,976.58
2017-10-03T07:17:32.798Z,976.67
2017-10-03T07:18:11.810Z,976.76
2017-10-03T07:19:11.841Z,976.74
2017-10-03T07:20:11.874Z,976.64
2017-10-03T07:21:11.919Z,976.61
2017-10-03T07:22:11.945Z,976.56
2017-10-03T07:23:33.004Z,976.59
2017-10-03T07:24:12.020Z,976.63
2017-10-03T07:25:12.055Z,976.61
2017-10-03T07:26:12.091Z,976.55
2017-10-03T07:27:12.132Z,976.47
2017-10-03T07:28:12.163Z,976.40
2017-10-03T07:29:33.226Z,976.50
2017-10-03T07:30:12.241Z,976.47
2017-10-03T07:31:12.271Z,976.48
2017-10-03T07:32:12.310Z,976.48
2017-10-03T07:33:12.348Z,976.51
2017-10-03T07:34:12.384Z,976.56
2017-10-03T07:35:33.437Z,976.58
2017-10-03T07:36:12.459Z,976.62
2017-10-03T07:37:12.489Z,976.63
2017-10-03T07:38:12.524Z,976.69
2017-10-03T07:39:12.557Z,976.63
2017-10-03T07:40:12.594Z,976.63
2017-10-03T07:41:33.652Z,976.59
2017-10-03T07:42:12.667Z,976.58
2017-10-03T07:43:12.706Z,976.55
2017-10-03T07:44:12.751Z,976.59
2017-10-03T07:45:12.780Z,976.61
2017-10-03T07:46:12.815Z,976.63
2017-10-03T07:47:33.872Z,976.68
2017-10-03T07:48:12.885Z,976.77
2017-10-03T07:49:12.925Z,976.83
2017-10-03T07:50:12.964Z,976.89
2017-10-03T07:51:12.999Z,976.88
2017-10-03T07:52:13.034Z,976.84
2017-10-03T07:53:34.087Z,976.84
2017-10-03T07:54:13.103Z,976.82
2017-10-03T07:55:13.144Z,976.86
2017-10-03T07:56:13.180Z,976.91
2017-10-03T07:57:13.221Z,976.95
2017-10-03T07:58:13.251Z,976.99
2017-10-03T07:59:34.307Z,977.02
2017-10-03T08:00:13.321Z,977.01
2017-10-03T08:01:13.361Z,976.99
2017-10-03T08:02:13.400Z,977.04
2017-10-03T08:03:13.432Z,977.05
2017-10-03T08:04:13.468Z,977.06
2017-10-03T08:05:34.526Z,977.10
2017-10-03T08:06:13.542Z,977.16
2017-10-03T08:07:13.585Z,977.27
2017-10-03T08:08:13.616Z,977.38
2017-10-03T08:09:13.651Z,977.30
2017-10-03T08:10:13.686Z,977.39
2017-10-03T08:11:34.740Z,977.33
2017-10-03T08:12:13.762Z,977.27
2017-10-03T08:13:13.815Z,977.18
2017-10-03T08:14:13.839Z,977.20
2017-10-03T08:15:13.877Z,977.28
2017-10-03T08:16:13.901Z,977.42
2017-10-03T08:17:34.968Z,977.53
2017-10-03T08:18:13.973Z,977.58
2017-10-03T08:19:14.019Z,977.64
2017-10-03T08:20:14.049Z,977.67
2017-10-03T08:21:14.084Z,977.63
2017-10-03T08:22:14.122Z,977.61
2017-10-03T08:23:35.180Z,977.54
2017-10-03T08:24:14.193Z,977.52
2017-10-03T08:25:14.236Z,977.53
2017-10-03T08:26:14.271Z,977.55
2017-10-03T08:27:14.301Z,977.59
2017-10-03T08:28:14.335Z,977.65
2017-10-03T08:29:35.395Z,977.69
2017-10-03T08:30:14.415Z,977.77
2017-10-03T08:31:14.452Z,977.72
2017-10-03T08:32:14.488Z,977.66
2017-10-03T08:33:14.530Z,977.65
2017-10-03T08:34:14.562Z,977.60
2017-10-03T08:35:35.612Z,977.54
2017-10-03T08:36:14.631Z,977.43
2017-10-03T08:37:14.664Z,977.50
2017-10-03T08:38:14.706Z,977.48
2017-10-03T08:39:14.747Z,977.54
2017-10-03T08:40:14.779Z,977.58
2017-10-03T08:41:35.832Z,977.54
2017-10-03T08:42:14.847Z,977.57
2017-10-03T08:43:14.887Z,977.55
2017-10-03T08:44:14.927Z,977.56
2017-10-03T08:45:14.962Z,977.57
2017-10-03T08:46:14.989Z,977.61
2017-10-03T08:47:36.057Z,977.65
2017-10-03T08:48:15.089Z,977.73
2017-10-03T08:49:15.108Z,977.73
2017-10-03T08:50:15.142Z,977.77
2017-10-03T08:51:15.178Z,977.80
2017-10-03T08:52:15.210Z,977.79
2017-10-03T08:53:36.266Z,977.82
2017-10-03T08:54:15.296Z,977.83
2017-10-03T08:55:15.321Z,977.81
2017-10-03T08:56:15.355Z,977.90
2017-10-03T08:57:15.394Z,977.86
2017-10-03T08:58:15.431Z,977.84
2017-10-03T08:59:36.489Z,977.83
2017-10-03T09:00:15.502Z,977.80
2017-10-03T09:01:15.535Z,977.75
2017-10-03T09:02:15.576Z,977.82
2017-10-03T09:03:15.610Z,977.86
2017-10-03T09:04:15.645Z,977.87
2017-10-03T09:05:36.704Z,977.87
2017-10-03T09:06:15.716Z,977.91
2017-10-03T09:07:15.754Z,978.00
2017-10-03T09:08:15.839Z,978.02
2017-10-03T09:09:15.827Z,978.03
2017-10-03T09:10:15.864Z,978.06
2017-10-03T09:11:36.927Z,978.07
2017-10-03T09:12:15.933Z,978.08
2017-10-03T09:13:15.971Z,978.13
2017-10-03T09:14:16.015Z,978.24
2017-10-03T09:15:16.052Z,978.25
2017-10-03T09:16:16.078Z,978.23
2017-10-03T09:17:37.134Z,978.25
2017-10-03T09:18:16.170Z,978.16
2017-10-03T09:19:16.186Z,978.21
2017-10-03T09:20:16.220Z,978.24
2017-10-03T09:21:16.258Z,978.18
2017-10-03T09:22:16.299Z,978.20
2017-10-03T09:23:37.350Z,978.16
2017-10-03T09:24:16.371Z,978.16
2017-10-03T09:25:16.399Z,978.18
2017-10-03T09:26:16.441Z,978.18
2017-10-03T09:27:16.474Z,978.18
2017-10-03T09:28:16.518Z,978.22
2017-10-03T09:29:37.567Z,978.23
2017-10-03T09:30:16.582Z,978.27
2017-10-03T09:31:16.623Z,978.30
2017-10-03T09:32:16.654Z,978.32
2017-10-03T09:33:16.691Z,978.30
2017-10-03T09:34:16.728Z,978.30
2017-10-03T09:35:37.779Z,978.32
2017-10-03T09:36:16.797Z,978.38
2017-10-03T09:37:16.831Z,978.34
2017-10-03T09:38:16.868Z,978.40
2017-10-03T09:39:16.911Z,978.45
2017-10-03T09:40:16.940Z,978.46
2017-10-03T09:41:38.001Z,978.47
2017-10-03T09:42:17.016Z,978.45
2017-10-03T09:43:17.047Z,978.43
2017-10-03T09:44:17.089Z,978.51
2017-10-03T09:45:17.138Z,978.44
2017-10-03T09:46:17.164Z,978.48
2017-10-03T09:47:38.223Z,978.49
2017-10-03T09:48:17.236Z,978.49
2017-10-03T09:49:17.264Z,978.48
2017-10-03T09:50:17.302Z,978.49
2017-10-03T09:51:17.335Z,978.50
2017-10-03T09:52:17.373Z,978.52
2017-10-03T09:53:38.434Z,978.59
2017-10-03T09:54:17.446Z,978.59
2017-10-03T09:55:17.481Z,978.61
2017-10-03T09:56:17.515Z,978.66
2017-10-03T09:57:17.551Z,978.70
2017-10-03T09:58:17.594Z,978.66
2017-10-03T09:59:38.652Z,978.68
2017-10-03T10:00:17.669Z,978.75
2017-10-03T10:01:17.701Z,978.70
2017-10-03T10:02:17.733Z,978.76
2017-10-03T10:03:17.769Z,978.80
2017-10-03T10:04:17.810Z,978.77
2017-10-03T10:05:38.863Z,978.80
2017-10-03T10:06:17.877Z,978.70
2017-10-03T10:07:17.910Z,978.77
2017-10-03T10:08:17.950Z,978.80
2017-10-03T10:09:17.983Z,978.86
2017-10-03T10:10:18.023Z,978.83
2017-10-03T10:11:39.077Z,978.83
2017-10-03T10:12:18.099Z,978.81
2017-10-03T10:13:18.135Z,978.89
2017-10-03T10:14:18.168Z,978.96
2017-10-03T10:15:18.199Z,978.96
2017-10-03T10:16:18.237Z,979.02
2017-10-03T10:17:39.294Z,979.00
2017-10-03T10:18:18.318Z,978.90
2017-10-03T10:19:18.354Z,978.80
2017-10-03T10:20:18.388Z,978.79
2017-10-03T10:21:18.417Z,978.84
2017-10-03T10:22:18.456Z,978.90
2017-10-03T10:23:39.512Z,979.00
2017-10-03T10:24:18.532Z,979.00
2017-10-03T10:25:18.561Z,979.04
2017-10-03T10:26:18.606Z,979.09
2017-10-03T10:27:18.645Z,979.10
2017-10-03T10:28:18.673Z,979.10
2017-10-03T10:29:39.735Z,979.21
2017-10-03T10:30:18.747Z,979.16
2017-10-03T10:31:18.788Z,979.19
2017-10-03T10:32:18.822Z,979.14
2017-10-03T10:33:18.856Z,979.11
2017-10-03T10:34:18.900Z,979.10
2017-10-03T10:35:39.949Z,979.19
2017-10-03T10:36:18.966Z,979.20
2017-10-03T10:37:18.999Z,979.24
2017-10-03T10:38:19.040Z,979.28
2017-10-03T10:39:19.072Z,979.27
2017-10-03T10:40:19.114Z,979.31
2017-10-03T10:41:40.168Z,979.35
2017-10-03T10:42:19.183Z,979.38
2017-10-03T10:43:19.255Z,979.34
2017-10-03T10:44:19.262Z,979.36
2017-10-03T10:45:19.299Z,979.37
2017-10-03T10:46:19.335Z,979.41
2017-10-03T10:47:40.390Z,979.47
2017-10-03T10:48:19.411Z,979.47
2017-10-03T10:49:19.444Z,979.54
2017-10-03T10:50:19.480Z,979.49
2017-10-03T10:51:19.524Z,979.47
2017-10-03T10:52:19.552Z,979.47
2017-10-03T10:53:40.619Z,979.52
2017-10-03T10:54:19.635Z,979.53
2017-10-03T10:55:19.667Z,979.58
2017-10-03T10:56:19.708Z,979.58
2017-10-03T10:57:19.738Z,979.55
2017-10-03T10:58:19.780Z,979.58
2017-10-03T10:59:40.838Z,979.61
2017-10-03T11:00:19.850Z,979.62
2017-10-03T11:01:19.889Z,979.65
2017-10-03T11:02:19.925Z,979.66
2017-10-03T11:03:19.959Z,979.66
2017-10-03T11:04:20.006Z,979.71
2017-10-03T11:05:41.063Z,979.74
2017-10-03T11:06:20.075Z,979.73
2017-10-03T11:07:20.109Z,979.78
2017-10-03T11:08:20.148Z,979.73
2017-10-03T11:09:20.191Z,979.79
2017-10-03T11:10:20.223Z,979.77
2017-10-03T11:11:41.305Z,979.77
2017-10-03T11:12:20.297Z,979.77
2017-10-03T11:13:20.333Z,979.77
2017-10-03T11:14:20.376Z,979.74
2017-10-03T11:15:20.412Z,979.84
2017-10-03T11:16:20.444Z,979.79
2017-10-03T11:17:41.523Z,979.81
2017-10-03T11:18:20.518Z,979.77
2017-10-03T11:19:20.565Z,979.79
2017-10-03T11:20:20.596Z,979.82
2017-10-03T11:21:20.645Z,979.76
2017-10-03T11:22:20.676Z,979.81
2017-10-03T11:23:41.729Z,979.92
2017-10-03T11:24:20.745Z,979.99
2017-10-03T11:25:20.781Z,979.92
2017-10-03T11:26:20.823Z,979.97
2017-10-03T11:27:20.856Z,979.97
2017-10-03T11:28:20.893Z,979.98
2017-10-03T11:29:41.957Z,980.02
2017-10-03T11:30:20.971Z,979.99
2017-10-03T11:31:21.006Z,979.99
2017-10-03T11:32:21.044Z,980.03
2017-10-03T11:33:21.080Z,979.95
2017-10-03T11:34:21.122Z,979.95
2017-10-03T11:35:42.182Z,979.96
2017-10-03T11:36:21.203Z,980.02
2017-10-03T11:37:21.232Z,979.99
2017-10-03T11:38:21.272Z,979.95
2017-10-03T11:39:21.309Z,980.00
2017-10-03T11:40:21.346Z,980.04
2017-10-03T11:41:42.401Z,979.96
2017-10-03T11:42:21.416Z,979.94
2017-10-03T11:43:21.458Z,979.99
2017-10-03T11:44:21.498Z,980.05
2017-10-03T11:45:21.532Z,979.99
2017-10-03T11:46:21.570Z,980.10
2017-10-03T11:47:42.625Z,980.07
2017-10-03T11:48:21.647Z,980.09
2017-10-03T11:49:21.690Z,980.11
2017-10-03T11:50:21.719Z,980.07
2017-10-03T11:51:21.755Z,980.05
2017-10-03T11:52:21.795Z,980.06
2017-10-03T11:53:42.862Z,980.04
2017-10-03T11:54:21.870Z,980.06
2017-10-03T11:55:21.924Z,980.02
2017-10-03T11:56:21.948Z,980.05
2017-10-03T11:57:21.985Z,980.12
2017-10-03T11:58:22.017Z,980.06
2017-10-03T11:59:43.078Z,980.10
2017-10-03T12:00:22.108Z,980.08
2017-10-03T12:01:22.138Z,980.08
2017-10-03T12:02:22.176Z,980.18
2017-10-03T12:03:22.211Z,980.14
2017-10-03T12:04:22.250Z,980.25
2017-10-03T12:05:43.305Z,980.20
2017-10-03T12:06:22.331Z,980.19
2017-10-03T12:07:22.360Z,980.20
2017-10-03T12:08:22.399Z,980.19
2017-10-03T12:09:22.434Z,980.21
2017-10-03T12:10:22.469Z,980.26
2017-10-03T12:11:43.534Z,980.30
2017-10-03T12:12:22.557Z,980.22
2017-10-03T12:13:22.585Z,980.23
2017-10-03T12:14:22.625Z,980.24
2017-10-03T12:15:22.670Z,980.25
2017-10-03T12:16:22.697Z,980.28
2017-10-03T12:17:43.755Z,980.29
2017-10-03T12:18:22.778Z,980.31
2017-10-03T12:19:22.811Z,980.26
2017-10-03T12:20:22.851Z,980.28
2017-10-03T12:21:22.890Z,980.35
2017-10-03T12:22:22.928Z,980.36
2017-10-03T12:23:43.979Z,980.38
2017-10-03T12:24:22.995Z,980.33
2017-10-03T12:25:23.035Z,980.34
2017-10-03T12:26:23.076Z,980.37
2017-10-03T12:27:23.114Z,980.40
2017-10-03T12:28:23.157Z,980.37
2017-10-03T12:29:44.209Z,980.33